sensor_id;sensor_type;location;lat;lon;timestamp;pressure;altitude;pressure_sealevel;temperature
20092;BMP180;10205;49.678;6.560;2022-11-15T00:01:09;99380.00;;;13.50
20092;BMP180;10205;49.678;6.560;2022-11-15T00:03:39;99360.00;;;13.50
20092;BMP180;10205;49.678;6.560;2022-11-15T00:06:06;99389.00;;;13.60
20092;BMP180;10205;49.678;6.560;2022-11-15T00:08:34;99377.00;;;13.60
20092;BMP180;10205;49.678;6.560;2022-11-15T00:11:03;99389.00;;;13.60
20092;BMP180;10205;49.678;6.560;2022-11-15T00:13:31;99384.00;;;13.60
20092;BMP180;10205;49.678;6.560;2022-11-15T00:16:00;99382.00;;;13.60
20092;BMP180;10205;49.678;6.560;2022-11-15T00:18:29;99374.00;;;13.60
20092;BMP180;10205;49.678;6.560;2022-11-15T00:21:05;99374.00;;;13.70
20092;BMP180;10205;49.678;6.560;2022-11-15T00:23:33;99386.00;;;13.70
20092;BMP180;10205;49.678;6.560;2022-11-15T00:26:01;99372.00;;;13.50
20092;BMP180;10205;49.678;6.560;2022-11-15T00:28:28;99371.00;;;13.70
20092;BMP180;10205;49.678;6.560;2022-11-15T00:31:02;99370.00;;;13.70
20092;BMP180;10205;49.678;6.560;2022-11-15T00:33:30;99371.00;;;13.80
20092;BMP180;10205;49.678;6.560;2022-11-15T00:36:04;99370.00;;;13.80
20092;BMP180;10205;49.678;6.560;2022-11-15T00:38:34;99373.00;;;13.80
20092;BMP180;10205;49.678;6.560;2022-11-15T00:41:04;99370.00;;;13.80
20092;BMP180;10205;49.678;6.560;2022-11-15T00:43:32;99372.00;;;13.90
20092;BMP180;10205;49.678;6.560;2022-11-15T00:46:01;99376.00;;;13.90
20092;BMP180;10205;49.678;6.560;2022-11-15T00:48:29;99371.00;;;13.80
20092;BMP180;10205;49.678;6.560;2022-11-15T00:50:57;99362.00;;;13.90
20092;BMP180;10205;49.678;6.560;2022-11-15T00:53:26;99369.00;;;13.90
20092;BMP180;10205;49.678;6.560;2022-11-15T00:55:54;99359.00;;;14.00
20092;BMP180;10205;49.678;6.560;2022-11-15T00:58:23;99355.00;;;13.90
20092;BMP180;10205;49.678;6.560;2022-11-15T01:00:50;99352.00;;;14.00
20092;BMP180;10205;49.678;6.560;2022-11-15T01:03:17;99358.00;;;14.00
20092;BMP180;10205;49.678;6.560;2022-11-15T01:05:44;99348.00;;;14.00
20092;BMP180;10205;49.678;6.560;2022-11-15T01:08:16;99364.00;;;14.00
20092;BMP180;10205;49.678;6.560;2022-11-15T01:10:45;99357.00;;;14.00
20092;BMP180;10205;49.678;6.560;2022-11-15T01:13:13;99362.00;;;14.10
20092;BMP180;10205;49.678;6.560;2022-11-15T01:15:42;99361.00;;;14.10
20092;BMP180;10205;49.678;6.560;2022-11-15T01:18:09;99364.00;;;14.10
20092;BMP180;10205;49.678;6.560;2022-11-15T01:20:40;99365.00;;;14.10
20092;BMP180;10205;49.678;6.560;2022-11-15T01:23:09;99366.00;;;14.10
20092;BMP180;10205;49.678;6.560;2022-11-15T01:25:37;99361.00;;;14.10
20092;BMP180;10205;49.678;6.560;2022-11-15T01:28:06;99370.00;;;14.20
20092;BMP180;10205;49.678;6.560;2022-11-15T01:30:33;99357.00;;;14.20
20092;BMP180;10205;49.678;6.560;2022-11-15T01:33:03;99359.00;;;14.20
20092;BMP180;10205;49.678;6.560;2022-11-15T01:35:30;99361.00;;;14.20
20092;BMP180;10205;49.678;6.560;2022-11-15T01:38:00;99363.00;;;14.20
20092;BMP180;10205;49.678;6.560;2022-11-15T01:40:30;99359.00;;;14.20
20092;BMP180;10205;49.678;6.560;2022-11-15T01:42:57;99357.00;;;14.30
20092;BMP180;10205;49.678;6.560;2022-11-15T01:45:26;99356.00;;;14.30
20092;BMP180;10205;49.678;6.560;2022-11-15T01:47:55;99360.00;;;14.30
20092;BMP180;10205;49.678;6.560;2022-11-15T01:50:30;99363.00;;;14.30
20092;BMP180;10205;49.678;6.560;2022-11-15T01:52:57;99354.00;;;14.30
20092;BMP180;10205;49.678;6.560;2022-11-15T01:55:30;99362.00;;;14.30
20092;BMP180;10205;49.678;6.560;2022-11-15T01:58:02;99350.00;;;14.30
20092;BMP180;10205;49.678;6.560;2022-11-15T02:00:32;99356.00;;;14.30
20092;BMP180;10205;49.678;6.560;2022-11-15T02:03:00;99351.00;;;14.40
20092;BMP180;10205;49.678;6.560;2022-11-15T02:05:30;99355.00;;;14.40
20092;BMP180;10205;49.678;6.560;2022-11-15T02:07:59;99353.00;;;14.40
20092;BMP180;10205;49.678;6.560;2022-11-15T02:10:28;99341.00;;;14.40
20092;BMP180;10205;49.678;6.560;2022-11-15T02:12:57;99336.00;;;14.40
20092;BMP180;10205;49.678;6.560;2022-11-15T02:15:36;99341.00;;;14.40
20092;BMP180;10205;49.678;6.560;2022-11-15T02:18:18;99335.00;;;14.40
20092;BMP180;10205;49.678;6.560;2022-11-15T02:21:15;99338.00;;;14.40
20092;BMP180;10205;49.678;6.560;2022-11-15T02:24:37;99347.00;;;14.40
20092;BMP180;10205;49.678;6.560;2022-11-15T02:27:50;99356.00;;;14.40
20092;BMP180;10205;49.678;6.560;2022-11-15T02:30:33;99336.00;;;14.40
20092;BMP180;10205;49.678;6.560;2022-11-15T02:33:13;99338.00;;;14.40
20092;BMP180;10205;49.678;6.560;2022-11-15T02:35:52;99333.00;;;14.40
20092;BMP180;10205;49.678;6.560;2022-11-15T02:38:31;99326.00;;;14.50
20092;BMP180;10205;49.678;6.560;2022-11-15T02:41:04;99346.00;;;14.50
20092;BMP180;10205;49.678;6.560;2022-11-15T02:43:39;99328.00;;;14.50
20092;BMP180;10205;49.678;6.560;2022-11-15T02:46:34;99325.00;;;14.50
20092;BMP180;10205;49.678;6.560;2022-11-15T02:49:20;99325.00;;;14.50
20092;BMP180;10205;49.678;6.560;2022-11-15T02:51:52;99336.00;;;14.50
20092;BMP180;10205;49.678;6.560;2022-11-15T02:54:23;99330.00;;;14.50
20092;BMP180;10205;49.678;6.560;2022-11-15T02:56:54;99317.00;;;14.50
20092;BMP180;10205;49.678;6.560;2022-11-15T03:00:02;99339.00;;;14.50
20092;BMP180;10205;49.678;6.560;2022-11-15T03:03:08;99325.00;;;14.50
20092;BMP180;10205;49.678;6.560;2022-11-15T03:05:44;99323.00;;;14.50
20092;BMP180;10205;49.678;6.560;2022-11-15T03:08:21;99318.00;;;14.50
20092;BMP180;10205;49.678;6.560;2022-11-15T03:11:01;99327.00;;;14.50
20092;BMP180;10205;49.678;6.560;2022-11-15T03:13:39;99311.00;;;14.50
20092;BMP180;10205;49.678;6.560;2022-11-15T03:16:16;99307.00;;;14.50
20092;BMP180;10205;49.678;6.560;2022-11-15T03:18:53;99306.00;;;14.50
20092;BMP180;10205;49.678;6.560;2022-11-15T03:21:28;99305.00;;;14.60
20092;BMP180;10205;49.678;6.560;2022-11-15T03:24:02;99308.00;;;14.60
20092;BMP180;10205;49.678;6.560;2022-11-15T03:26:33;99295.00;;;14.60
20092;BMP180;10205;49.678;6.560;2022-11-15T03:29:06;99295.00;;;14.60
20092;BMP180;10205;49.678;6.560;2022-11-15T03:31:40;99295.00;;;14.60
20092;BMP180;10205;49.678;6.560;2022-11-15T03:34:26;99292.00;;;14.60
20092;BMP180;10205;49.678;6.560;2022-11-15T03:36:54;99294.00;;;14.60
20092;BMP180;10205;49.678;6.560;2022-11-15T03:39:22;99289.00;;;14.60
20092;BMP180;10205;49.678;6.560;2022-11-15T03:42:01;99294.00;;;14.50
20092;BMP180;10205;49.678;6.560;2022-11-15T03:44:41;99295.00;;;14.60
20092;BMP180;10205;49.678;6.560;2022-11-15T03:47:19;99290.00;;;14.60
20092;BMP180;10205;49.678;6.560;2022-11-15T03:49:55;99292.00;;;14.60
20092;BMP180;10205;49.678;6.560;2022-11-15T03:52:25;99290.00;;;14.60
20092;BMP180;10205;49.678;6.560;2022-11-15T03:54:55;99292.00;;;14.50
20092;BMP180;10205;49.678;6.560;2022-11-15T03:57:23;99289.00;;;14.50
20092;BMP180;10205;49.678;6.560;2022-11-15T03:59:53;99311.00;;;14.60
20092;BMP180;10205;49.678;6.560;2022-11-15T04:02:20;99296.00;;;14.50
20092;BMP180;10205;49.678;6.560;2022-11-15T04:04:47;99308.00;;;14.50
20092;BMP180;10205;49.678;6.560;2022-11-15T04:07:16;99300.00;;;14.50
20092;BMP180;10205;49.678;6.560;2022-11-15T04:09:43;99249.00;;;14.50
20092;BMP180;10205;49.678;6.560;2022-11-15T04:12:29;99310.00;;;14.50
20092;BMP180;10205;49.678;6.560;2022-11-15T04:15:02;99289.00;;;14.50
20092;BMP180;10205;49.678;6.560;2022-11-15T04:17:38;99294.00;;;14.50
20092;BMP180;10205;49.678;6.560;2022-11-15T04:20:10;99293.00;;;14.50
20092;BMP180;10205;49.678;6.560;2022-11-15T04:22:59;99291.00;;;14.50
20092;BMP180;10205;49.678;6.560;2022-11-15T04:25:51;99291.00;;;14.40
20092;BMP180;10205;49.678;6.560;2022-11-15T04:28:19;99299.00;;;14.40
20092;BMP180;10205;49.678;6.560;2022-11-15T04:30:46;99291.00;;;14.40
20092;BMP180;10205;49.678;6.560;2022-11-15T04:33:14;99296.00;;;14.40
20092;BMP180;10205;49.678;6.560;2022-11-15T04:35:42;99300.00;;;14.40
20092;BMP180;10205;49.678;6.560;2022-11-15T04:38:11;99285.00;;;14.40
20092;BMP180;10205;49.678;6.560;2022-11-15T04:40:38;99296.00;;;14.40
20092;BMP180;10205;49.678;6.560;2022-11-15T04:43:06;99292.00;;;14.40
20092;BMP180;10205;49.678;6.560;2022-11-15T04:45:33;99299.00;;;14.40
20092;BMP180;10205;49.678;6.560;2022-11-15T04:48:00;99281.00;;;14.40
20092;BMP180;10205;49.678;6.560;2022-11-15T04:50:27;99305.00;;;14.40
20092;BMP180;10205;49.678;6.560;2022-11-15T04:52:54;99299.00;;;14.40
20092;BMP180;10205;49.678;6.560;2022-11-15T04:55:24;99294.00;;;14.40
20092;BMP180;10205;49.678;6.560;2022-11-15T04:57:58;99299.00;;;14.40
20092;BMP180;10205;49.678;6.560;2022-11-15T05:00:27;99298.00;;;14.30
20092;BMP180;10205;49.678;6.560;2022-11-15T05:02:55;99298.00;;;14.30
20092;BMP180;10205;49.678;6.560;2022-11-15T05:05:40;99299.00;;;14.30
20092;BMP180;10205;49.678;6.560;2022-11-15T05:08:08;99307.00;;;14.30
20092;BMP180;10205;49.678;6.560;2022-11-15T05:10:37;99312.00;;;14.30
20092;BMP180;10205;49.678;6.560;2022-11-15T05:13:04;99315.00;;;14.30
20092;BMP180;10205;49.678;6.560;2022-11-15T05:15:35;99314.00;;;14.30
20092;BMP180;10205;49.678;6.560;2022-11-15T05:18:02;99299.00;;;14.30
20092;BMP180;10205;49.678;6.560;2022-11-15T05:20:29;99314.00;;;14.30
20092;BMP180;10205;49.678;6.560;2022-11-15T05:22:57;99306.00;;;14.30
20092;BMP180;10205;49.678;6.560;2022-11-15T05:25:24;99304.00;;;14.30
20092;BMP180;10205;49.678;6.560;2022-11-15T05:27:54;99304.00;;;14.30
20092;BMP180;10205;49.678;6.560;2022-11-15T05:30:21;99297.00;;;14.30
20092;BMP180;10205;49.678;6.560;2022-11-15T05:32:48;99304.00;;;14.30
20092;BMP180;10205;49.678;6.560;2022-11-15T05:35:26;99297.00;;;14.30
20092;BMP180;10205;49.678;6.560;2022-11-15T05:38:01;99296.00;;;14.30
20092;BMP180;10205;49.678;6.560;2022-11-15T05:40:30;99283.00;;;14.30
20092;BMP180;10205;49.678;6.560;2022-11-15T05:43:01;99317.00;;;14.20
20092;BMP180;10205;49.678;6.560;2022-11-15T05:45:29;99306.00;;;14.20
20092;BMP180;10205;49.678;6.560;2022-11-15T05:48:00;99300.00;;;14.20
20092;BMP180;10205;49.678;6.560;2022-11-15T05:50:28;99294.00;;;14.20
20092;BMP180;10205;49.678;6.560;2022-11-15T05:52:56;99295.00;;;14.30
20092;BMP180;10205;49.678;6.560;2022-11-15T05:55:24;99297.00;;;14.30
20092;BMP180;10205;49.678;6.560;2022-11-15T05:57:52;99295.00;;;14.30
20092;BMP180;10205;49.678;6.560;2022-11-15T06:00:21;99296.00;;;14.30
20092;BMP180;10205;49.678;6.560;2022-11-15T06:02:49;99294.00;;;14.20
20092;BMP180;10205;49.678;6.560;2022-11-15T06:05:16;99289.00;;;14.20
20092;BMP180;10205;49.678;6.560;2022-11-15T06:07:43;99296.00;;;14.20
20092;BMP180;10205;49.678;6.560;2022-11-15T06:10:11;99309.00;;;14.20
20092;BMP180;10205;49.678;6.560;2022-11-15T06:12:39;99308.00;;;14.20
20092;BMP180;10205;49.678;6.560;2022-11-15T06:15:08;99311.00;;;14.20
20092;BMP180;10205;49.678;6.560;2022-11-15T06:17:36;99310.00;;;14.20
20092;BMP180;10205;49.678;6.560;2022-11-15T06:20:05;99308.00;;;14.30
20092;BMP180;10205;49.678;6.560;2022-11-15T06:22:32;99312.00;;;14.20
20092;BMP180;10205;49.678;6.560;2022-11-15T06:24:59;99311.00;;;14.20
20092;BMP180;10205;49.678;6.560;2022-11-15T06:27:28;99321.00;;;14.20
20092;BMP180;10205;49.678;6.560;2022-11-15T06:29:56;99313.00;;;14.20
20092;BMP180;10205;49.678;6.560;2022-11-15T06:32:23;99316.00;;;14.20
20092;BMP180;10205;49.678;6.560;2022-11-15T06:34:55;99307.00;;;14.20
20092;BMP180;10205;49.678;6.560;2022-11-15T06:37:22;99314.00;;;14.20
20092;BMP180;10205;49.678;6.560;2022-11-15T06:39:50;99315.00;;;14.20
20092;BMP180;10205;49.678;6.560;2022-11-15T06:42:17;99319.00;;;14.20
20092;BMP180;10205;49.678;6.560;2022-11-15T06:44:45;99322.00;;;14.20
20092;BMP180;10205;49.678;6.560;2022-11-15T06:47:12;99323.00;;;14.20
20092;BMP180;10205;49.678;6.560;2022-11-15T06:49:39;99316.00;;;14.20
20092;BMP180;10205;49.678;6.560;2022-11-15T06:52:07;99320.00;;;14.20
20092;BMP180;10205;49.678;6.560;2022-11-15T06:54:35;99326.00;;;14.10
20092;BMP180;10205;49.678;6.560;2022-11-15T06:57:04;99316.00;;;14.10
20092;BMP180;10205;49.678;6.560;2022-11-15T06:59:35;99326.00;;;14.10
20092;BMP180;10205;49.678;6.560;2022-11-15T07:02:02;99331.00;;;14.10
20092;BMP180;10205;49.678;6.560;2022-11-15T07:04:30;99332.00;;;14.10
20092;BMP180;10205;49.678;6.560;2022-11-15T07:06:57;99322.00;;;14.10
20092;BMP180;10205;49.678;6.560;2022-11-15T07:09:26;99325.00;;;14.10
20092;BMP180;10205;49.678;6.560;2022-11-15T07:11:53;99329.00;;;14.10
20092;BMP180;10205;49.678;6.560;2022-11-15T07:14:21;99329.00;;;14.10
20092;BMP180;10205;49.678;6.560;2022-11-15T07:16:48;99328.00;;;14.10
20092;BMP180;10205;49.678;6.560;2022-11-15T07:19:15;99330.00;;;14.00
20092;BMP180;10205;49.678;6.560;2022-11-15T07:21:42;99335.00;;;14.00
20092;BMP180;10205;49.678;6.560;2022-11-15T07:24:09;99335.00;;;14.00
20092;BMP180;10205;49.678;6.560;2022-11-15T07:26:38;99341.00;;;14.00
20092;BMP180;10205;49.678;6.560;2022-11-15T07:29:05;99337.00;;;14.00
20092;BMP180;10205;49.678;6.560;2022-11-15T07:31:33;99340.00;;;14.00
20092;BMP180;10205;49.678;6.560;2022-11-15T07:34:00;99343.00;;;14.00
20092;BMP180;10205;49.678;6.560;2022-11-15T07:36:28;99341.00;;;14.00
20092;BMP180;10205;49.678;6.560;2022-11-15T07:38:56;99336.00;;;14.00
20092;BMP180;10205;49.678;6.560;2022-11-15T07:41:23;99331.00;;;13.90
20092;BMP180;10205;49.678;6.560;2022-11-15T07:43:53;99328.00;;;13.90
20092;BMP180;10205;49.678;6.560;2022-11-15T07:46:20;99335.00;;;13.90
20092;BMP180;10205;49.678;6.560;2022-11-15T07:48:47;99339.00;;;13.90
20092;BMP180;10205;49.678;6.560;2022-11-15T07:51:15;99332.00;;;13.90
20092;BMP180;10205;49.678;6.560;2022-11-15T07:53:44;99328.00;;;13.90
20092;BMP180;10205;49.678;6.560;2022-11-15T07:56:12;99334.00;;;13.90
20092;BMP180;10205;49.678;6.560;2022-11-15T07:58:45;99333.00;;;13.90
20092;BMP180;10205;49.678;6.560;2022-11-15T08:01:15;99329.00;;;13.90
20092;BMP180;10205;49.678;6.560;2022-11-15T08:03:42;99310.00;;;13.90
20092;BMP180;10205;49.678;6.560;2022-11-15T08:06:09;99310.00;;;13.90
20092;BMP180;10205;49.678;6.560;2022-11-15T08:08:37;99316.00;;;13.90
20092;BMP180;10205;49.678;6.560;2022-11-15T08:11:04;99316.00;;;13.90
20092;BMP180;10205;49.678;6.560;2022-11-15T08:13:31;99297.00;;;13.80
20092;BMP180;10205;49.678;6.560;2022-11-15T08:15:59;99296.00;;;13.80
20092;BMP180;10205;49.678;6.560;2022-11-15T08:18:31;99305.00;;;13.80
20092;BMP180;10205;49.678;6.560;2022-11-15T08:20:59;99309.00;;;13.80
20092;BMP180;10205;49.678;6.560;2022-11-15T08:23:27;99300.00;;;13.80
20092;BMP180;10205;49.678;6.560;2022-11-15T08:26:00;99291.00;;;13.80
20092;BMP180;10205;49.678;6.560;2022-11-15T08:28:29;99299.00;;;13.80
20092;BMP180;10205;49.678;6.560;2022-11-15T08:30:56;99297.00;;;13.90
20092;BMP180;10205;49.678;6.560;2022-11-15T08:33:23;99304.00;;;13.90
20092;BMP180;10205;49.678;6.560;2022-11-15T08:35:52;99305.00;;;13.80
20092;BMP180;10205;49.678;6.560;2022-11-15T08:38:22;99307.00;;;13.90
20092;BMP180;10205;49.678;6.560;2022-11-15T08:40:53;99294.00;;;13.90
20092;BMP180;10205;49.678;6.560;2022-11-15T08:43:25;99296.00;;;13.90
20092;BMP180;10205;49.678;6.560;2022-11-15T08:45:56;99289.00;;;13.90
20092;BMP180;10205;49.678;6.560;2022-11-15T08:48:23;99285.00;;;13.90
20092;BMP180;10205;49.678;6.560;2022-11-15T08:50:55;99287.00;;;13.90
20092;BMP180;10205;49.678;6.560;2022-11-15T08:53:23;99275.00;;;13.90
20092;BMP180;10205;49.678;6.560;2022-11-15T08:55:50;99293.00;;;13.90
20092;BMP180;10205;49.678;6.560;2022-11-15T08:58:17;99305.00;;;13.90
20092;BMP180;10205;49.678;6.560;2022-11-15T09:00:44;99281.00;;;14.00
20092;BMP180;10205;49.678;6.560;2022-11-15T09:03:12;99280.00;;;14.00
20092;BMP180;10205;49.678;6.560;2022-11-15T09:05:41;99284.00;;;14.00
20092;BMP180;10205;49.678;6.560;2022-11-15T09:08:10;99289.00;;;14.00
20092;BMP180;10205;49.678;6.560;2022-11-15T09:10:39;99282.00;;;14.00
20092;BMP180;10205;49.678;6.560;2022-11-15T09:13:07;99279.00;;;14.00
20092;BMP180;10205;49.678;6.560;2022-11-15T09:15:34;99274.00;;;14.00
20092;BMP180;10205;49.678;6.560;2022-11-15T09:18:02;99268.00;;;14.10
20092;BMP180;10205;49.678;6.560;2022-11-15T09:20:29;99266.00;;;14.10
20092;BMP180;10205;49.678;6.560;2022-11-15T09:23:00;99251.00;;;14.10
20092;BMP180;10205;49.678;6.560;2022-11-15T09:25:31;99248.00;;;14.10
20092;BMP180;10205;49.678;6.560;2022-11-15T09:27:59;99220.00;;;14.10
20092;BMP180;10205;49.678;6.560;2022-11-15T09:30:26;99237.00;;;14.20
20092;BMP180;10205;49.678;6.560;2022-11-15T09:32:53;99231.00;;;14.20
20092;BMP180;10205;49.678;6.560;2022-11-15T09:35:21;99226.00;;;14.20
20092;BMP180;10205;49.678;6.560;2022-11-15T09:37:48;99241.00;;;14.20
20092;BMP180;10205;49.678;6.560;2022-11-15T09:40:17;99235.00;;;14.30
20092;BMP180;10205;49.678;6.560;2022-11-15T09:43:10;99218.00;;;14.30
20092;BMP180;10205;49.678;6.560;2022-11-15T09:46:07;99220.00;;;14.30
20092;BMP180;10205;49.678;6.560;2022-11-15T09:48:50;99234.00;;;14.30
20092;BMP180;10205;49.678;6.560;2022-11-15T09:51:27;99213.00;;;14.40
20092;BMP180;10205;49.678;6.560;2022-11-15T09:54:09;99210.00;;;14.40
20092;BMP180;10205;49.678;6.560;2022-11-15T09:56:42;99217.00;;;14.40
20092;BMP180;10205;49.678;6.560;2022-11-15T10:02:30;99215.00;;;14.50
20092;BMP180;10205;49.678;6.560;2022-11-15T10:05:02;99215.00;;;14.50
20092;BMP180;10205;49.678;6.560;2022-11-15T10:07:40;99217.00;;;14.60
20092;BMP180;10205;49.678;6.560;2022-11-15T10:10:20;99217.00;;;14.60
20092;BMP180;10205;49.678;6.560;2022-11-15T10:12:52;99206.00;;;14.70
20092;BMP180;10205;49.678;6.560;2022-11-15T10:15:22;99195.00;;;14.70
20092;BMP180;10205;49.678;6.560;2022-11-15T10:18:12;99199.00;;;14.70
20092;BMP180;10205;49.678;6.560;2022-11-15T10:20:48;99188.00;;;14.80
20092;BMP180;10205;49.678;6.560;2022-11-15T10:23:20;99186.00;;;14.80
20092;BMP180;10205;49.678;6.560;2022-11-15T10:25:51;99191.00;;;14.80
20092;BMP180;10205;49.678;6.560;2022-11-15T10:28:24;99188.00;;;14.90
20092;BMP180;10205;49.678;6.560;2022-11-15T10:30:57;99173.00;;;14.90
20092;BMP180;10205;49.678;6.560;2022-11-15T10:33:31;99166.00;;;15.00
20092;BMP180;10205;49.678;6.560;2022-11-15T10:36:22;99149.00;;;15.00
20092;BMP180;10205;49.678;6.560;2022-11-15T10:38:57;99160.00;;;15.10
20092;BMP180;10205;49.678;6.560;2022-11-15T10:41:38;99150.00;;;15.10
20092;BMP180;10205;49.678;6.560;2022-11-15T10:44:25;99154.00;;;15.20
20092;BMP180;10205;49.678;6.560;2022-11-15T10:47:25;99138.00;;;15.20
20092;BMP180;10205;49.678;6.560;2022-11-15T10:50:02;99134.00;;;15.30
20092;BMP180;10205;49.678;6.560;2022-11-15T10:52:34;99117.00;;;15.30
20092;BMP180;10205;49.678;6.560;2022-11-15T10:55:21;99117.00;;;15.30
20092;BMP180;10205;49.678;6.560;2022-11-15T10:57:52;99111.00;;;15.40
20092;BMP180;10205;49.678;6.560;2022-11-15T11:00:35;99115.00;;;15.40
20092;BMP180;10205;49.678;6.560;2022-11-15T11:03:28;99106.00;;;15.50
20092;BMP180;10205;49.678;6.560;2022-11-15T11:06:07;99099.00;;;15.50
20092;BMP180;10205;49.678;6.560;2022-11-15T11:08:35;99110.00;;;15.60
20092;BMP180;10205;49.678;6.560;2022-11-15T11:11:05;99102.00;;;15.60
20092;BMP180;10205;49.678;6.560;2022-11-15T11:13:35;99099.00;;;15.70
20092;BMP180;10205;49.678;6.560;2022-11-15T11:16:20;99094.00;;;15.70
20092;BMP180;10205;49.678;6.560;2022-11-15T11:19:02;99087.00;;;15.80
20092;BMP180;10205;49.678;6.560;2022-11-15T11:21:46;99074.00;;;15.80
20092;BMP180;10205;49.678;6.560;2022-11-15T11:24:26;99072.00;;;15.90
20092;BMP180;10205;49.678;6.560;2022-11-15T11:27:11;99048.00;;;15.90
20092;BMP180;10205;49.678;6.560;2022-11-15T11:29:56;99058.00;;;16.00
20092;BMP180;10205;49.678;6.560;2022-11-15T11:35:32;99048.00;;;16.10
20092;BMP180;10205;49.678;6.560;2022-11-15T11:38:19;99057.00;;;16.10
20092;BMP180;10205;49.678;6.560;2022-11-15T11:41:04;99037.00;;;16.10
20092;BMP180;10205;49.678;6.560;2022-11-15T11:43:47;99034.00;;;16.20
20092;BMP180;10205;49.678;6.560;2022-11-15T11:46:35;99047.00;;;16.20
20092;BMP180;10205;49.678;6.560;2022-11-15T11:49:10;99027.00;;;16.30
20092;BMP180;10205;49.678;6.560;2022-11-15T11:51:47;99025.00;;;16.30
20092;BMP180;10205;49.678;6.560;2022-11-15T11:54:24;99024.00;;;16.30
20092;BMP180;10205;49.678;6.560;2022-11-15T11:56:54;99016.00;;;16.30
20092;BMP180;10205;49.678;6.560;2022-11-15T11:59:35;99009.00;;;16.40
20092;BMP180;10205;49.678;6.560;2022-11-15T12:02:16;99010.00;;;16.40
20092;BMP180;10205;49.678;6.560;2022-11-15T12:04:50;98992.00;;;16.40
20092;BMP180;10205;49.678;6.560;2022-11-15T12:07:26;98997.00;;;16.40
20092;BMP180;10205;49.678;6.560;2022-11-15T12:10:03;98997.00;;;16.40
20092;BMP180;10205;49.678;6.560;2022-11-15T12:12:39;98979.00;;;16.40
20092;BMP180;10205;49.678;6.560;2022-11-15T12:15:16;98974.00;;;16.50
20092;BMP180;10205;49.678;6.560;2022-11-15T12:17:46;98973.00;;;16.50
20092;BMP180;10205;49.678;6.560;2022-11-15T12:20:18;98964.00;;;16.50
20092;BMP180;10205;49.678;6.560;2022-11-15T12:22:56;98965.00;;;16.50
20092;BMP180;10205;49.678;6.560;2022-11-15T12:25:32;98952.00;;;16.60
20092;BMP180;10205;49.678;6.560;2022-11-15T12:28:14;98950.00;;;16.60
20092;BMP180;10205;49.678;6.560;2022-11-15T12:30:49;98949.00;;;16.60
20092;BMP180;10205;49.678;6.560;2022-11-15T12:33:33;98931.00;;;16.60
20092;BMP180;10205;49.678;6.560;2022-11-15T12:36:05;98929.00;;;16.60
20092;BMP180;10205;49.678;6.560;2022-11-15T12:38:55;98924.00;;;16.70
20092;BMP180;10205;49.678;6.560;2022-11-15T12:41:26;98943.00;;;16.70
20092;BMP180;10205;49.678;6.560;2022-11-15T12:43:55;98937.00;;;16.70
20092;BMP180;10205;49.678;6.560;2022-11-15T12:47:04;98926.00;;;16.70
20092;BMP180;10205;49.678;6.560;2022-11-15T12:49:51;98920.00;;;16.80
20092;BMP180;10205;49.678;6.560;2022-11-15T12:52:20;98926.00;;;16.80
20092;BMP180;10205;49.678;6.560;2022-11-15T12:54:59;98923.00;;;16.80
20092;BMP180;10205;49.678;6.560;2022-11-15T12:57:35;98922.00;;;16.80
20092;BMP180;10205;49.678;6.560;2022-11-15T13:00:43;98909.00;;;16.90
20092;BMP180;10205;49.678;6.560;2022-11-15T13:03:27;98910.00;;;16.90
20092;BMP180;10205;49.678;6.560;2022-11-15T13:06:04;98907.00;;;16.90
20092;BMP180;10205;49.678;6.560;2022-11-15T13:08:47;98896.00;;;16.90
20092;BMP180;10205;49.678;6.560;2022-11-15T13:11:58;98889.00;;;16.90
20092;BMP180;10205;49.678;6.560;2022-11-15T13:14:50;98892.00;;;17.00
20092;BMP180;10205;49.678;6.560;2022-11-15T13:17:36;98877.00;;;17.00
20092;BMP180;10205;49.678;6.560;2022-11-15T13:20:20;98874.00;;;17.00
20092;BMP180;10205;49.678;6.560;2022-11-15T13:22:51;98860.00;;;17.00
20092;BMP180;10205;49.678;6.560;2022-11-15T13:25:44;98852.00;;;17.00
20092;BMP180;10205;49.678;6.560;2022-11-15T13:28:26;98859.00;;;17.10
20092;BMP180;10205;49.678;6.560;2022-11-15T13:30:57;98863.00;;;17.10
20092;BMP180;10205;49.678;6.560;2022-11-15T13:33:32;98847.00;;;17.10
20092;BMP180;10205;49.678;6.560;2022-11-15T13:36:05;98841.00;;;17.10
20092;BMP180;10205;49.678;6.560;2022-11-15T13:38:35;98840.00;;;17.20
20092;BMP180;10205;49.678;6.560;2022-11-15T13:41:18;98836.00;;;17.20
20092;BMP180;10205;49.678;6.560;2022-11-15T13:43:47;98844.00;;;17.20
20092;BMP180;10205;49.678;6.560;2022-11-15T13:46:20;98845.00;;;17.20
20092;BMP180;10205;49.678;6.560;2022-11-15T13:48:56;98827.00;;;17.20
20092;BMP180;10205;49.678;6.560;2022-11-15T13:51:33;98820.00;;;17.30
20092;BMP180;10205;49.678;6.560;2022-11-15T13:54:14;98818.00;;;17.30
20092;BMP180;10205;49.678;6.560;2022-11-15T13:56:47;98813.00;;;17.30
20092;BMP180;10205;49.678;6.560;2022-11-15T13:59:25;98807.00;;;17.30
20092;BMP180;10205;49.678;6.560;2022-11-15T14:01:54;98796.00;;;17.30
20092;BMP180;10205;49.678;6.560;2022-11-15T14:04:25;98794.00;;;17.30
20092;BMP180;10205;49.678;6.560;2022-11-15T14:06:58;98779.00;;;17.30
20092;BMP180;10205;49.678;6.560;2022-11-15T14:09:36;98777.00;;;17.40
20092;BMP180;10205;49.678;6.560;2022-11-15T14:12:32;98772.00;;;17.40
20092;BMP180;10205;49.678;6.560;2022-11-15T14:15:19;98767.00;;;17.40
20092;BMP180;10205;49.678;6.560;2022-11-15T14:17:52;98768.00;;;17.40
20092;BMP180;10205;49.678;6.560;2022-11-15T14:20:31;98762.00;;;17.40
20092;BMP180;10205;49.678;6.560;2022-11-15T14:23:00;98761.00;;;17.40
20092;BMP180;10205;49.678;6.560;2022-11-15T14:25:29;98761.00;;;17.40
20092;BMP180;10205;49.678;6.560;2022-11-15T14:28:27;98753.00;;;17.40
20092;BMP180;10205;49.678;6.560;2022-11-15T14:31:04;98749.00;;;17.40
20092;BMP180;10205;49.678;6.560;2022-11-15T14:33:36;98751.00;;;17.40
20092;BMP180;10205;49.678;6.560;2022-11-15T14:36:05;98739.00;;;17.40
20092;BMP180;10205;49.678;6.560;2022-11-15T14:38:33;98736.00;;;17.40
20092;BMP180;10205;49.678;6.560;2022-11-15T14:41:01;98740.00;;;17.40
20092;BMP180;10205;49.678;6.560;2022-11-15T14:43:29;98732.00;;;17.40
20092;BMP180;10205;49.678;6.560;2022-11-15T14:45:58;98724.00;;;17.40
20092;BMP180;10205;49.678;6.560;2022-11-15T14:48:25;98715.00;;;17.40
20092;BMP180;10205;49.678;6.560;2022-11-15T14:50:52;98729.00;;;17.40